LCPH

Paphos International Airport

Paphos, Cyprus
TAF LCPH 132330Z 1400/1424 07008KT 9999 FEW020 SCT040 PROB40 1402/1414 4000 SHRA SCT020TCU PROB30 TEMPO 1402/1412 VRB15G25KT 2000 TSRA SCT020CB BECMG 1406/1409 26012KT BECMG 1416/1418 03006KT
Issued Valid From Valid To
Dec-13 @ 23:30 UTC
(4 hours ago)
Dec-14 @ 00:00 UTC
(3 hours ago)
Dec-15 @ 00:00 UTC
(in 21 hours)
Dec-14 @ 00:00 to Dec-14 @ 06:00
TAF LCPH 132330Z 1400/1424 07008KT 9999 FEW020 SCT040
Wind Visibility Clouds
70° at 8 knots 10,000+ meters
  • Few at 2,000' AGL
  • Scattered at 4,000' AGL
Temporary  (Probability 30%) Dec-14 @ 02:00 to Dec-14 @ 12:00
PROB30 TEMPO 1402/1412 VRB15G25KT 2000 TSRA SCT020CB
Wind Visibility Clouds Conditions
Variable at 15 knots
 Gusting to 25 knots
1,996 meters
  • Scattered at 2,000' AGL
  • Thunderstorm
  • Rain
Probable  (Probability 40%) Dec-14 @ 02:00 to Dec-14 @ 14:00
PROB40 1402/1414 4000 SHRA SCT020TCU
Visibility Clouds Conditions
4,007 meters
  • Scattered at 2,000' AGL
  • Rain
Becoming Dec-14 @ 06:00 to Dec-14 @ 16:00
BECMG 1406/1409 26012KT
Wind Visibility Clouds
260° at 12 knots 10,000+ meters
  • Few at 2,000' AGL
  • Scattered at 4,000' AGL
Becoming Dec-14 @ 16:00 to Dec-15 @ 00:00
BECMG 1416/1418 03006KT
Wind Visibility Clouds
30° at 6 knots 10,000+ meters
  • Few at 2,000' AGL
  • Scattered at 4,000' AGL
TAF LCPH 132330Z 1400/1424 07008KT 9999 FEW020 SCT040 PROB40 1402/1414 4000 SHRA SCT020TCU PROB30 TEMPO 1402/1412 VRB15G25KT 2000 TSRA SCT020CB BECMG 1406/1409 26012KT BECMG 1416/1418 03006KT
Issued Dec-13 @ 23:30 UTC
(4 hours ago)
Valid From Dec-14 @ 00:00 UTC
(3 hours ago)
Valid To Dec-15 @ 00:00 UTC
(in 21 hours)
Dec-14 @ 00:00 - Dec-14 @ 06:00
Wind Visibility
70° at 8 knots 10,000+ meters
Clouds
  • Few at 2,000' AGL
  • Scattered at 4,000' AGL
Probability 30% Temporary Dec-14 @ 02:00 - Dec-14 @ 12:00
Wind Visibility
Variable at 15 knots
 Gusting to 25 knots
1,996 meters
Clouds
  • Scattered at 2,000' AGL
Conditions
  • Thunderstorm
  • Rain
Probability 40% Probable Dec-14 @ 02:00 - Dec-14 @ 14:00
Clouds
  • Scattered at 2,000' AGL
Conditions
  • Rain
Becoming Dec-14 @ 06:00 - Dec-14 @ 16:00
Wind Visibility
260° at 12 knots 10,000+ meters
Clouds
  • Few at 2,000' AGL
  • Scattered at 4,000' AGL
Becoming Dec-14 @ 16:00 - Dec-15 @ 00:00
Wind Visibility
30° at 6 knots 10,000+ meters
Clouds
  • Few at 2,000' AGL
  • Scattered at 4,000' AGL